Cartoogechaye, North Carolina
Current Conditions -  °F | °C
As of 11:15 PM on Saturday 25 Oct 2014 (Local Time) from KRHP Reporting Station
Clear Clear  
Wind Chill: 47°   Ceiling: Unl
Heat Index: 47°   Visibility: 10mi
Dew Point: 47°   Wind: 0mph
Humidity: 99%   Direction: NA
Pressure: 30.08"   Gusts: NA
Location:  35.1737°N, 83.4215°W
Report Text: KRHP 260315Z AUTO 00000KT 10SM CLR 09/08 A3008 RMK AO2 T00850083
Loading
Personal Weather Stations






























Interactive Weather Map New forecast layout! Learn more

10-Day Weather Forecast

Advertisements
Track Severe Weather on mobile